sensor_id;sensor_type;location;lat;lon;timestamp;pressure;altitude;pressure_sealevel;temperature;humidity
40384;BME280;26097;42.366;23.818;2022-08-24T00:01:45;93918.84;;;16.68;100.00
40384;BME280;26097;42.366;23.818;2022-08-24T00:04:46;93912.72;;;16.59;100.00
40384;BME280;26097;42.366;23.818;2022-08-24T00:07:48;93913.06;;;16.64;100.00
40384;BME280;26097;42.366;23.818;2022-08-24T00:10:49;93908.13;;;16.69;100.00
40384;BME280;26097;42.366;23.818;2022-08-24T00:13:49;93909.44;;;16.65;100.00
40384;BME280;26097;42.366;23.818;2022-08-24T00:16:50;93906.16;;;16.63;100.00
40384;BME280;26097;42.366;23.818;2022-08-24T00:19:51;93913.38;;;16.61;100.00
40384;BME280;26097;42.366;23.818;2022-08-24T00:22:52;93910.06;;;16.51;100.00
40384;BME280;26097;42.366;23.818;2022-08-24T00:25:52;93910.84;;;16.43;100.00
40384;BME280;26097;42.366;23.818;2022-08-24T00:28:53;93898.97;;;16.39;100.00
40384;BME280;26097;42.366;23.818;2022-08-24T00:31:54;93897.81;;;16.33;100.00
40384;BME280;26097;42.366;23.818;2022-08-24T00:34:54;93895.97;;;16.34;100.00
40384;BME280;26097;42.366;23.818;2022-08-24T00:37:55;93888.88;;;16.26;100.00
40384;BME280;26097;42.366;23.818;2022-08-24T00:40:56;93895.69;;;16.10;100.00
40384;BME280;26097;42.366;23.818;2022-08-24T00:43:59;93891.38;;;16.01;100.00
40384;BME280;26097;42.366;23.818;2022-08-24T00:47:24;93892.00;;;15.95;100.00
40384;BME280;26097;42.366;23.818;2022-08-24T00:50:51;93899.50;;;15.90;100.00
40384;BME280;26097;42.366;23.818;2022-08-24T00:53:57;93904.22;;;15.86;100.00
40384;BME280;26097;42.366;23.818;2022-08-24T00:57:03;93907.00;;;15.84;100.00
40384;BME280;26097;42.366;23.818;2022-08-24T01:00:13;93905.47;;;15.82;100.00
40384;BME280;26097;42.366;23.818;2022-08-24T01:03:14;93904.31;;;15.76;100.00
40384;BME280;26097;42.366;23.818;2022-08-24T01:06:15;93902.28;;;15.70;100.00
40384;BME280;26097;42.366;23.818;2022-08-24T01:09:16;93914.06;;;15.66;100.00
40384;BME280;26097;42.366;23.818;2022-08-24T01:12:16;93922.22;;;15.54;100.00
40384;BME280;26097;42.366;23.818;2022-08-24T01:15:17;93930.84;;;15.47;100.00
40384;BME280;26097;42.366;23.818;2022-08-24T01:18:22;93937.50;;;15.41;100.00
40384;BME280;26097;42.366;23.818;2022-08-24T01:25:06;93947.41;;;15.29;100.00
40384;BME280;26097;42.366;23.818;2022-08-24T01:28:16;93946.00;;;15.35;100.00
40384;BME280;26097;42.366;23.818;2022-08-24T01:31:20;93941.47;;;15.45;100.00
40384;BME280;26097;42.366;23.818;2022-08-24T01:34:21;93948.03;;;15.41;100.00
40384;BME280;26097;42.366;23.818;2022-08-24T01:37:22;93953.19;;;15.33;100.00
40384;BME280;26097;42.366;23.818;2022-08-24T01:40:26;93946.53;;;15.56;100.00
40384;BME280;26097;42.366;23.818;2022-08-24T01:43:30;93946.59;;;15.65;100.00
40384;BME280;26097;42.366;23.818;2022-08-24T01:46:31;93959.09;;;15.71;100.00
40384;BME280;26097;42.366;23.818;2022-08-24T01:49:34;93949.22;;;15.65;100.00
40384;BME280;26097;42.366;23.818;2022-08-24T01:52:39;93956.88;;;15.76;100.00
40384;BME280;26097;42.366;23.818;2022-08-24T01:55:40;93948.81;;;15.78;100.00
40384;BME280;26097;42.366;23.818;2022-08-24T01:58:43;93959.50;;;15.76;100.00
40384;BME280;26097;42.366;23.818;2022-08-24T02:01:53;93951.94;;;15.73;100.00
40384;BME280;26097;42.366;23.818;2022-08-24T02:04:54;93957.69;;;15.77;100.00
40384;BME280;26097;42.366;23.818;2022-08-24T02:07:55;93954.00;;;15.88;100.00
40384;BME280;26097;42.366;23.818;2022-08-24T02:10:57;93950.03;;;15.83;100.00
40384;BME280;26097;42.366;23.818;2022-08-24T02:13:58;93948.38;;;15.82;100.00
40384;BME280;26097;42.366;23.818;2022-08-24T02:16:59;93964.81;;;15.84;100.00
40384;BME280;26097;42.366;23.818;2022-08-24T02:20:01;93966.09;;;15.80;100.00
40384;BME280;26097;42.366;23.818;2022-08-24T02:23:02;93961.50;;;15.82;100.00
40384;BME280;26097;42.366;23.818;2022-08-24T02:26:04;93960.22;;;15.87;100.00
40384;BME280;26097;42.366;23.818;2022-08-24T02:29:05;93951.78;;;15.93;100.00
40384;BME280;26097;42.366;23.818;2022-08-24T02:32:06;93950.19;;;16.00;100.00
40384;BME280;26097;42.366;23.818;2022-08-24T02:35:06;93951.09;;;15.91;100.00
40384;BME280;26097;42.366;23.818;2022-08-24T02:38:07;93951.31;;;15.79;100.00
40384;BME280;26097;42.366;23.818;2022-08-24T02:41:10;93955.75;;;15.61;100.00
40384;BME280;26097;42.366;23.818;2022-08-24T02:44:11;93953.19;;;15.51;100.00
40384;BME280;26097;42.366;23.818;2022-08-24T02:47:11;93963.16;;;15.47;100.00
40384;BME280;26097;42.366;23.818;2022-08-24T02:50:14;93960.19;;;15.42;100.00
40384;BME280;26097;42.366;23.818;2022-08-24T02:53:17;93961.47;;;15.38;100.00
40384;BME280;26097;42.366;23.818;2022-08-24T02:56:18;93965.19;;;15.35;100.00
40384;BME280;26097;42.366;23.818;2022-08-24T02:59:20;93978.19;;;15.37;100.00
40384;BME280;26097;42.366;23.818;2022-08-24T03:02:21;93976.53;;;15.36;100.00
40384;BME280;26097;42.366;23.818;2022-08-24T03:05:23;93971.97;;;15.38;100.00
40384;BME280;26097;42.366;23.818;2022-08-24T03:08:23;93974.28;;;15.41;100.00
40384;BME280;26097;42.366;23.818;2022-08-24T03:11:24;93973.31;;;15.42;100.00
40384;BME280;26097;42.366;23.818;2022-08-24T03:14:24;93968.72;;;15.44;100.00
40384;BME280;26097;42.366;23.818;2022-08-24T03:17:25;93977.28;;;15.46;100.00
40384;BME280;26097;42.366;23.818;2022-08-24T03:20:26;93962.38;;;15.47;100.00
40384;BME280;26097;42.366;23.818;2022-08-24T03:23:26;93967.44;;;15.48;100.00
40384;BME280;26097;42.366;23.818;2022-08-24T03:26:27;93969.78;;;15.51;100.00
40384;BME280;26097;42.366;23.818;2022-08-24T03:29:27;93979.69;;;15.57;100.00
40384;BME280;26097;42.366;23.818;2022-08-24T03:32:28;93979.94;;;15.64;100.00
40384;BME280;26097;42.366;23.818;2022-08-24T03:35:28;93982.69;;;15.63;100.00
40384;BME280;26097;42.366;23.818;2022-08-24T03:38:29;93984.34;;;15.64;100.00
40384;BME280;26097;42.366;23.818;2022-08-24T03:41:29;93976.03;;;15.68;100.00
40384;BME280;26097;42.366;23.818;2022-08-24T03:44:30;93979.53;;;15.77;100.00
40384;BME280;26097;42.366;23.818;2022-08-24T03:47:30;93995.31;;;15.77;100.00
40384;BME280;26097;42.366;23.818;2022-08-24T03:50:30;93991.53;;;15.80;100.00
40384;BME280;26097;42.366;23.818;2022-08-24T03:53:31;93989.44;;;15.83;100.00
40384;BME280;26097;42.366;23.818;2022-08-24T03:56:32;93995.22;;;15.87;100.00
40384;BME280;26097;42.366;23.818;2022-08-24T03:59:32;94000.22;;;15.90;100.00
40384;BME280;26097;42.366;23.818;2022-08-24T04:02:32;94003.66;;;15.91;100.00
40384;BME280;26097;42.366;23.818;2022-08-24T04:05:33;94001.25;;;15.97;100.00
40384;BME280;26097;42.366;23.818;2022-08-24T04:08:34;94007.03;;;16.01;100.00
40384;BME280;26097;42.366;23.818;2022-08-24T04:11:35;93994.91;;;16.08;100.00
40384;BME280;26097;42.366;23.818;2022-08-24T04:14:35;93995.00;;;16.17;100.00
40384;BME280;26097;42.366;23.818;2022-08-24T04:17:36;93998.34;;;16.27;100.00
40384;BME280;26097;42.366;23.818;2022-08-24T04:20:41;93997.09;;;16.31;100.00
40384;BME280;26097;42.366;23.818;2022-08-24T04:23:42;93987.94;;;16.44;100.00
40384;BME280;26097;42.366;23.818;2022-08-24T04:26:43;93988.66;;;16.54;100.00
40384;BME280;26097;42.366;23.818;2022-08-24T04:29:43;93994.28;;;16.59;100.00
40384;BME280;26097;42.366;23.818;2022-08-24T04:32:44;93998.91;;;16.65;100.00
40384;BME280;26097;42.366;23.818;2022-08-24T04:35:47;93999.19;;;16.80;100.00
40384;BME280;26097;42.366;23.818;2022-08-24T04:38:48;94003.25;;;17.01;100.00
40384;BME280;26097;42.366;23.818;2022-08-24T04:41:49;94004.13;;;17.18;100.00
40384;BME280;26097;42.366;23.818;2022-08-24T04:44:50;94013.41;;;17.31;100.00
40384;BME280;26097;42.366;23.818;2022-08-24T04:47:50;94010.59;;;17.32;100.00
40384;BME280;26097;42.366;23.818;2022-08-24T04:50:51;94013.41;;;17.47;100.00
40384;BME280;26097;42.366;23.818;2022-08-24T04:53:52;94018.69;;;17.47;100.00
40384;BME280;26097;42.366;23.818;2022-08-24T04:56:53;94006.06;;;17.59;100.00
40384;BME280;26097;42.366;23.818;2022-08-24T04:59:56;94008.22;;;17.72;100.00
40384;BME280;26097;42.366;23.818;2022-08-24T05:02:57;94017.44;;;17.76;100.00
40384;BME280;26097;42.366;23.818;2022-08-24T05:05:57;94009.53;;;17.84;100.00
40384;BME280;26097;42.366;23.818;2022-08-24T05:08:59;94014.47;;;17.88;100.00
40384;BME280;26097;42.366;23.818;2022-08-24T05:11:59;94003.94;;;17.96;100.00
40384;BME280;26097;42.366;23.818;2022-08-24T05:15:00;93999.00;;;18.01;100.00
40384;BME280;26097;42.366;23.818;2022-08-24T05:18:01;93997.41;;;18.08;100.00
40384;BME280;26097;42.366;23.818;2022-08-24T05:21:06;93994.59;;;18.18;100.00
40384;BME280;26097;42.366;23.818;2022-08-24T05:24:07;93989.16;;;18.28;100.00
40384;BME280;26097;42.366;23.818;2022-08-24T05:27:08;93989.94;;;18.37;100.00
40384;BME280;26097;42.366;23.818;2022-08-24T05:30:09;93986.63;;;18.60;100.00
40384;BME280;26097;42.366;23.818;2022-08-24T05:33:10;93991.97;;;18.91;100.00
40384;BME280;26097;42.366;23.818;2022-08-24T05:36:20;93995.44;;;19.00;100.00
40384;BME280;26097;42.366;23.818;2022-08-24T05:39:21;93986.56;;;19.24;100.00
40384;BME280;26097;42.366;23.818;2022-08-24T05:42:22;93993.19;;;19.29;100.00
40384;BME280;26097;42.366;23.818;2022-08-24T05:45:23;94003.84;;;19.44;100.00
40384;BME280;26097;42.366;23.818;2022-08-24T05:48:24;93989.78;;;19.43;100.00
40384;BME280;26097;42.366;23.818;2022-08-24T05:51:27;93993.41;;;19.50;100.00
40384;BME280;26097;42.366;23.818;2022-08-24T05:54:28;93993.63;;;19.64;100.00
40384;BME280;26097;42.366;23.818;2022-08-24T05:57:34;93995.25;;;19.73;99.04
40384;BME280;26097;42.366;23.818;2022-08-24T06:00:35;93995.53;;;19.78;97.51
40384;BME280;26097;42.366;23.818;2022-08-24T06:03:37;93993.28;;;19.90;99.10
40384;BME280;26097;42.366;23.818;2022-08-24T06:06:37;93998.94;;;19.87;96.63
40384;BME280;26097;42.366;23.818;2022-08-24T06:09:39;93992.28;;;20.00;97.24
40384;BME280;26097;42.366;23.818;2022-08-24T06:12:39;93998.84;;;20.04;96.69
40384;BME280;26097;42.366;23.818;2022-08-24T06:15:40;93992.97;;;20.17;95.12
40384;BME280;26097;42.366;23.818;2022-08-24T06:18:41;93993.09;;;20.38;96.77
40384;BME280;26097;42.366;23.818;2022-08-24T06:21:42;93984.81;;;20.41;94.36
40384;BME280;26097;42.366;23.818;2022-08-24T06:24:43;93981.88;;;20.36;92.32
40384;BME280;26097;42.366;23.818;2022-08-24T06:28:02;93980.34;;;20.42;92.62
40384;BME280;26097;42.366;23.818;2022-08-24T06:31:04;93977.72;;;20.57;92.70
40384;BME280;26097;42.366;23.818;2022-08-24T06:34:07;93992.16;;;20.69;89.57
40384;BME280;26097;42.366;23.818;2022-08-24T06:37:08;93996.63;;;20.69;90.70
40384;BME280;26097;42.366;23.818;2022-08-24T06:40:09;93995.44;;;20.72;90.19
40384;BME280;26097;42.366;23.818;2022-08-24T06:43:09;93994.84;;;20.85;88.44
40384;BME280;26097;42.366;23.818;2022-08-24T06:46:10;93995.03;;;20.98;87.85
40384;BME280;26097;42.366;23.818;2022-08-24T06:49:11;93993.19;;;21.14;87.91
40384;BME280;26097;42.366;23.818;2022-08-24T06:52:11;93998.09;;;21.32;89.53
40384;BME280;26097;42.366;23.818;2022-08-24T06:55:12;94001.84;;;21.37;88.20
40384;BME280;26097;42.366;23.818;2022-08-24T06:58:12;94006.84;;;21.47;87.63
40384;BME280;26097;42.366;23.818;2022-08-24T07:01:24;94003.50;;;21.38;84.00
40384;BME280;26097;42.366;23.818;2022-08-24T07:04:26;94003.22;;;21.33;85.58
40384;BME280;26097;42.366;23.818;2022-08-24T07:07:27;94008.59;;;21.40;86.58
40384;BME280;26097;42.366;23.818;2022-08-24T07:10:28;94005.88;;;21.33;85.13
40384;BME280;26097;42.366;23.818;2022-08-24T07:13:29;94008.53;;;21.33;83.99
40384;BME280;26097;42.366;23.818;2022-08-24T07:16:33;94005.59;;;21.43;84.01
40384;BME280;26097;42.366;23.818;2022-08-24T07:19:34;94000.00;;;21.38;82.85
40384;BME280;26097;42.366;23.818;2022-08-24T07:22:34;94001.94;;;21.44;82.28
40384;BME280;26097;42.366;23.818;2022-08-24T07:25:35;94004.34;;;21.61;84.95
40384;BME280;26097;42.366;23.818;2022-08-24T07:28:39;93999.41;;;21.58;79.78
40384;BME280;26097;42.366;23.818;2022-08-24T07:31:41;93987.03;;;21.80;83.21
40384;BME280;26097;42.366;23.818;2022-08-24T07:34:41;93980.16;;;21.86;81.16
40384;BME280;26097;42.366;23.818;2022-08-24T07:37:42;93994.25;;;22.08;81.15
40384;BME280;26097;42.366;23.818;2022-08-24T07:40:45;93990.31;;;22.25;81.81
40384;BME280;26097;42.366;23.818;2022-08-24T07:43:47;93990.75;;;22.29;79.86
40384;BME280;26097;42.366;23.818;2022-08-24T07:46:48;93987.59;;;22.40;80.40
40384;BME280;26097;42.366;23.818;2022-08-24T07:49:48;93994.16;;;22.45;80.51
40384;BME280;26097;42.366;23.818;2022-08-24T07:52:49;93993.53;;;22.43;77.57
40384;BME280;26097;42.366;23.818;2022-08-24T07:55:54;93984.34;;;22.45;76.56
40384;BME280;26097;42.366;23.818;2022-08-24T07:58:55;93989.66;;;22.45;78.36
40384;BME280;26097;42.366;23.818;2022-08-24T08:01:57;93988.84;;;22.45;76.25
40384;BME280;26097;42.366;23.818;2022-08-24T08:04:57;93987.31;;;22.57;76.86
40384;BME280;26097;42.366;23.818;2022-08-24T08:07:58;93980.47;;;22.70;75.92
40384;BME280;26097;42.366;23.818;2022-08-24T08:10:58;93985.69;;;22.56;70.69
40384;BME280;26097;42.366;23.818;2022-08-24T08:14:01;93993.59;;;22.78;75.99
40384;BME280;26097;42.366;23.818;2022-08-24T08:17:01;93990.25;;;22.69;72.17
40384;BME280;26097;42.366;23.818;2022-08-24T08:20:04;93993.25;;;22.88;74.32
40384;BME280;26097;42.366;23.818;2022-08-24T08:23:06;93989.69;;;23.09;74.59
40384;BME280;26097;42.366;23.818;2022-08-24T08:26:25;93999.78;;;23.20;71.88
40384;BME280;26097;42.366;23.818;2022-08-24T08:29:26;93999.81;;;23.27;71.87
40384;BME280;26097;42.366;23.818;2022-08-24T08:32:27;93998.75;;;23.21;71.74
40384;BME280;26097;42.366;23.818;2022-08-24T08:35:27;94001.59;;;23.20;72.49
40384;BME280;26097;42.366;23.818;2022-08-24T08:38:28;93999.78;;;23.20;72.34
40384;BME280;26097;42.366;23.818;2022-08-24T08:41:52;94006.41;;;23.38;69.03
40384;BME280;26097;42.366;23.818;2022-08-24T08:45:10;93996.25;;;23.55;69.87
40384;BME280;26097;42.366;23.818;2022-08-24T08:54:56;94009.63;;;23.75;67.09
40384;BME280;26097;42.366;23.818;2022-08-24T09:01:29;94011.94;;;23.99;71.63
40384;BME280;26097;42.366;23.818;2022-08-24T09:21:40;93995.28;;;25.90;64.59
40384;BME280;26097;42.366;23.818;2022-08-24T09:31:41;93977.03;;;25.87;61.10
40384;BME280;26097;42.366;23.818;2022-08-24T09:35:13;93971.31;;;26.16;60.22
40384;BME280;26097;42.366;23.818;2022-08-24T09:38:28;93969.03;;;26.13;59.40
40384;BME280;26097;42.366;23.818;2022-08-24T10:12:48;93949.03;;;25.97;66.13
40384;BME280;26097;42.366;23.818;2022-08-24T10:29:24;93931.66;;;27.07;60.80
40384;BME280;26097;42.366;23.818;2022-08-24T10:35:35;93946.41;;;26.73;61.39
40384;BME280;26097;42.366;23.818;2022-08-24T10:42:33;93937.75;;;27.15;62.74
40384;BME280;26097;42.366;23.818;2022-08-24T10:55:37;93929.72;;;27.33;58.04
40384;BME280;26097;42.366;23.818;2022-08-24T11:05:07;93919.53;;;27.23;61.02
40384;BME280;26097;42.366;23.818;2022-08-24T11:08:16;93920.41;;;26.80;59.19
40384;BME280;26097;42.366;23.818;2022-08-24T11:11:32;93926.03;;;26.53;62.09
40384;BME280;26097;42.366;23.818;2022-08-24T11:14:37;93929.00;;;26.38;57.59
40384;BME280;26097;42.366;23.818;2022-08-24T11:17:55;93928.25;;;26.31;59.28
40384;BME280;26097;42.366;23.818;2022-08-24T11:20:56;93918.22;;;26.26;63.26
40384;BME280;26097;42.366;23.818;2022-08-24T11:24:01;93920.66;;;26.02;63.79
40384;BME280;26097;42.366;23.818;2022-08-24T11:27:07;93914.22;;;25.78;63.36
40384;BME280;26097;42.366;23.818;2022-08-24T11:30:13;93915.06;;;25.78;60.94
40384;BME280;26097;42.366;23.818;2022-08-24T11:36:46;93908.06;;;26.09;61.02
40384;BME280;26097;42.366;23.818;2022-08-24T11:39:46;93897.81;;;26.06;62.23
40384;BME280;26097;42.366;23.818;2022-08-24T11:43:09;93901.22;;;26.14;62.99
40384;BME280;26097;42.366;23.818;2022-08-24T11:53:02;93877.78;;;27.22;58.76
40384;BME280;26097;42.366;23.818;2022-08-24T11:59:45;93877.03;;;27.64;56.71
40384;BME280;26097;42.366;23.818;2022-08-24T12:03:00;93866.91;;;27.67;55.92
40384;BME280;26097;42.366;23.818;2022-08-24T12:06:24;93875.91;;;27.72;57.22
40384;BME280;26097;42.366;23.818;2022-08-24T12:09:37;93866.59;;;27.87;57.52
40384;BME280;26097;42.366;23.818;2022-08-24T12:15:47;93867.06;;;28.50;54.52
40384;BME280;26097;42.366;23.818;2022-08-24T12:22:05;93869.00;;;29.02;52.22
40384;BME280;26097;42.366;23.818;2022-08-24T12:25:07;93874.25;;;28.61;54.51
40384;BME280;26097;42.366;23.818;2022-08-24T12:28:35;93877.44;;;27.31;54.22
40384;BME280;26097;42.366;23.818;2022-08-24T12:37:52;93883.28;;;27.09;53.68
40384;BME280;26097;42.366;23.818;2022-08-24T12:40:57;93876.97;;;26.85;55.17
40384;BME280;26097;42.366;23.818;2022-08-24T12:44:09;93881.94;;;26.81;59.65
40384;BME280;26097;42.366;23.818;2022-08-24T12:47:18;93887.84;;;26.46;62.41
40384;BME280;26097;42.366;23.818;2022-08-24T12:56:51;93875.38;;;27.33;59.92
40384;BME280;26097;42.366;23.818;2022-08-24T12:59:55;93873.31;;;27.35;60.47
40384;BME280;26097;42.366;23.818;2022-08-24T13:03:04;93877.19;;;26.83;63.01
40384;BME280;26097;42.366;23.818;2022-08-24T13:06:09;93872.06;;;26.63;61.72
40384;BME280;26097;42.366;23.818;2022-08-24T13:15:53;93850.03;;;27.66;60.06
40384;BME280;26097;42.366;23.818;2022-08-24T13:22:44;93850.88;;;27.17;64.92
40384;BME280;26097;42.366;23.818;2022-08-24T13:28:47;93860.97;;;27.34;62.05
40384;BME280;26097;42.366;23.818;2022-08-24T13:31:53;93844.63;;;28.08;59.22
40384;BME280;26097;42.366;23.818;2022-08-24T13:34:56;93840.31;;;28.79;55.64
40384;BME280;26097;42.366;23.818;2022-08-24T13:45:45;93839.44;;;29.14;51.53
40384;BME280;26097;42.366;23.818;2022-08-24T13:49:00;93836.88;;;29.36;52.59
40384;BME280;26097;42.366;23.818;2022-08-24T13:52:42;93821.13;;;29.86;50.76
40384;BME280;26097;42.366;23.818;2022-08-24T13:55:53;93828.47;;;29.91;55.57
40384;BME280;26097;42.366;23.818;2022-08-24T14:08:48;93831.47;;;28.07;58.37
40384;BME280;26097;42.366;23.818;2022-08-24T14:12:20;93826.59;;;28.04;57.83
40384;BME280;26097;42.366;23.818;2022-08-24T14:25:15;93842.63;;;27.49;60.69
40384;BME280;26097;42.366;23.818;2022-08-24T14:31:35;93838.19;;;26.57;68.23
40384;BME280;26097;42.366;23.818;2022-08-24T14:47:16;93838.75;;;25.96;69.42
40384;BME280;26097;42.366;23.818;2022-08-24T14:50:29;93842.13;;;26.10;67.86
40384;BME280;26097;42.366;23.818;2022-08-24T14:54:00;93825.66;;;26.57;65.15
40384;BME280;26097;42.366;23.818;2022-08-24T15:07:27;93827.66;;;28.50;54.71
40384;BME280;26097;42.366;23.818;2022-08-24T15:17:16;93848.81;;;26.82;59.48
40384;BME280;26097;42.366;23.818;2022-08-24T15:20:30;93852.06;;;26.84;58.61
40384;BME280;26097;42.366;23.818;2022-08-24T15:29:56;93836.06;;;27.64;66.02
40384;BME280;26097;42.366;23.818;2022-08-24T15:33:10;93839.78;;;27.63;58.62
40384;BME280;26097;42.366;23.818;2022-08-24T15:36:14;93838.09;;;27.19;59.67
40384;BME280;26097;42.366;23.818;2022-08-24T15:39:25;93832.03;;;26.75;60.70
40384;BME280;26097;42.366;23.818;2022-08-24T15:42:28;93835.44;;;26.63;63.30
40384;BME280;26097;42.366;23.818;2022-08-24T15:45:30;93832.81;;;26.19;68.85
40384;BME280;26097;42.366;23.818;2022-08-24T15:48:32;93855.66;;;25.58;75.80
40384;BME280;26097;42.366;23.818;2022-08-24T15:51:45;93884.84;;;25.00;68.93
40384;BME280;26097;42.366;23.818;2022-08-24T15:54:57;93910.47;;;23.33;85.06
40384;BME280;26097;42.366;23.818;2022-08-24T16:01:23;93910.75;;;21.08;100.00
40384;BME280;26097;42.366;23.818;2022-08-24T16:04:47;93900.03;;;20.50;100.00
40384;BME280;26097;42.366;23.818;2022-08-24T16:11:19;93884.84;;;19.90;100.00
40384;BME280;26097;42.366;23.818;2022-08-24T16:14:33;93910.53;;;19.81;100.00
40384;BME280;26097;42.366;23.818;2022-08-24T16:17:46;93904.06;;;19.69;100.00
40384;BME280;26097;42.366;23.818;2022-08-24T16:20:47;93913.88;;;19.60;100.00
40384;BME280;26097;42.366;23.818;2022-08-24T16:23:56;93914.22;;;19.57;100.00
40384;BME280;26097;42.366;23.818;2022-08-24T16:27:05;93918.09;;;19.46;100.00
40384;BME280;26097;42.366;23.818;2022-08-24T16:30:24;93912.44;;;19.26;100.00
40384;BME280;26097;42.366;23.818;2022-08-24T16:36:34;93930.53;;;19.06;100.00
40384;BME280;26097;42.366;23.818;2022-08-24T16:39:34;93929.56;;;18.98;100.00
40384;BME280;26097;42.366;23.818;2022-08-24T16:42:35;93929.59;;;18.90;100.00
40384;BME280;26097;42.366;23.818;2022-08-24T16:45:36;93933.38;;;18.88;100.00
40384;BME280;26097;42.366;23.818;2022-08-24T16:48:36;93932.59;;;18.79;100.00
40384;BME280;26097;42.366;23.818;2022-08-24T16:51:36;93924.19;;;18.75;100.00
40384;BME280;26097;42.366;23.818;2022-08-24T16:54:37;93932.28;;;18.74;100.00
40384;BME280;26097;42.366;23.818;2022-08-24T16:57:37;93917.31;;;18.66;100.00
40384;BME280;26097;42.366;23.818;2022-08-24T17:00:39;93923.38;;;18.66;100.00
40384;BME280;26097;42.366;23.818;2022-08-24T17:03:40;93923.22;;;18.68;100.00
40384;BME280;26097;42.366;23.818;2022-08-24T17:06:40;93928.66;;;18.66;100.00
40384;BME280;26097;42.366;23.818;2022-08-24T17:09:43;93929.66;;;18.65;100.00
40384;BME280;26097;42.366;23.818;2022-08-24T17:12:45;93936.28;;;18.61;100.00
40384;BME280;26097;42.366;23.818;2022-08-24T17:15:45;93945.19;;;18.60;100.00
40384;BME280;26097;42.366;23.818;2022-08-24T17:18:46;93952.78;;;18.63;100.00
40384;BME280;26097;42.366;23.818;2022-08-24T17:21:46;93958.06;;;18.63;100.00
40384;BME280;26097;42.366;23.818;2022-08-24T17:24:48;93967.47;;;18.66;100.00
40384;BME280;26097;42.366;23.818;2022-08-24T17:27:50;93969.94;;;18.59;100.00
40384;BME280;26097;42.366;23.818;2022-08-24T17:30:51;93977.56;;;18.54;100.00
40384;BME280;26097;42.366;23.818;2022-08-24T17:33:52;93977.91;;;18.51;100.00
40384;BME280;26097;42.366;23.818;2022-08-24T17:36:54;93981.84;;;18.47;100.00
40384;BME280;26097;42.366;23.818;2022-08-24T17:39:56;93980.53;;;18.42;100.00
40384;BME280;26097;42.366;23.818;2022-08-24T17:42:57;93982.53;;;18.40;100.00
40384;BME280;26097;42.366;23.818;2022-08-24T17:45:57;93985.66;;;18.36;100.00
40384;BME280;26097;42.366;23.818;2022-08-24T17:48:58;93991.94;;;18.26;100.00
40384;BME280;26097;42.366;23.818;2022-08-24T17:51:59;93999.69;;;18.28;100.00
40384;BME280;26097;42.366;23.818;2022-08-24T17:55:00;94013.19;;;18.25;100.00
40384;BME280;26097;42.366;23.818;2022-08-24T17:58:00;94010.91;;;18.22;100.00
40384;BME280;26097;42.366;23.818;2022-08-24T18:01:00;94016.00;;;18.15;100.00
40384;BME280;26097;42.366;23.818;2022-08-24T18:04:01;94022.78;;;18.09;100.00
40384;BME280;26097;42.366;23.818;2022-08-24T18:07:07;94015.03;;;18.08;100.00
40384;BME280;26097;42.366;23.818;2022-08-24T18:10:09;94021.44;;;18.05;100.00
40384;BME280;26097;42.366;23.818;2022-08-24T18:13:10;94018.44;;;18.00;100.00
40384;BME280;26097;42.366;23.818;2022-08-24T18:16:16;94024.72;;;17.99;100.00
40384;BME280;26097;42.366;23.818;2022-08-24T18:19:18;94018.78;;;17.97;100.00
40384;BME280;26097;42.366;23.818;2022-08-24T18:22:19;94018.28;;;17.93;100.00
40384;BME280;26097;42.366;23.818;2022-08-24T18:25:20;94026.38;;;17.92;100.00
40384;BME280;26097;42.366;23.818;2022-08-24T18:28:22;94019.44;;;17.91;100.00
40384;BME280;26097;42.366;23.818;2022-08-24T18:31:24;94034.59;;;17.89;100.00
40384;BME280;26097;42.366;23.818;2022-08-24T18:34:25;94048.59;;;17.81;100.00
40384;BME280;26097;42.366;23.818;2022-08-24T18:37:26;94049.41;;;17.81;100.00
40384;BME280;26097;42.366;23.818;2022-08-24T18:40:27;94052.88;;;17.82;100.00
40384;BME280;26097;42.366;23.818;2022-08-24T18:43:27;94058.31;;;17.80;100.00
40384;BME280;26097;42.366;23.818;2022-08-24T18:46:29;94067.53;;;17.84;100.00
40384;BME280;26097;42.366;23.818;2022-08-24T18:49:30;94072.47;;;17.79;100.00
40384;BME280;26097;42.366;23.818;2022-08-24T18:52:30;94070.50;;;17.73;100.00
40384;BME280;26097;42.366;23.818;2022-08-24T18:55:31;94068.84;;;17.72;100.00
40384;BME280;26097;42.366;23.818;2022-08-24T18:58:32;94071.66;;;17.79;100.00
40384;BME280;26097;42.366;23.818;2022-08-24T19:01:33;94065.75;;;17.85;100.00
40384;BME280;26097;42.366;23.818;2022-08-24T19:05:09;94079.59;;;17.95;100.00
40384;BME280;26097;42.366;23.818;2022-08-24T19:08:10;94088.00;;;17.91;100.00
40384;BME280;26097;42.366;23.818;2022-08-24T19:11:10;94086.97;;;17.83;100.00
40384;BME280;26097;42.366;23.818;2022-08-24T19:14:12;94092.06;;;17.77;100.00
40384;BME280;26097;42.366;23.818;2022-08-24T19:17:14;94092.06;;;17.77;100.00
40384;BME280;26097;42.366;23.818;2022-08-24T19:20:14;94078.72;;;17.78;100.00
40384;BME280;26097;42.366;23.818;2022-08-24T19:23:21;94076.44;;;17.83;100.00
40384;BME280;26097;42.366;23.818;2022-08-24T19:26:22;94072.81;;;17.76;100.00
40384;BME280;26097;42.366;23.818;2022-08-24T19:29:23;94066.88;;;17.74;100.00
40384;BME280;26097;42.366;23.818;2022-08-24T19:32:26;94061.94;;;17.71;100.00
40384;BME280;26097;42.366;23.818;2022-08-24T19:35:29;94056.47;;;17.64;100.00
40384;BME280;26097;42.366;23.818;2022-08-24T19:38:31;94059.72;;;17.50;100.00
40384;BME280;26097;42.366;23.818;2022-08-24T19:41:33;94061.53;;;17.49;100.00